Pulau Tioman — 3EYO9 — position and weather

sailwx.info

Track history (hours):
 
Tides and Currents Weather Stations Pressure Air Temp Water Temp Dewpoint Dewpoint Depression Visibility Wind Speed Wind Dir Waves Ship Positions

Pulau Tioman

Last reported at 2015-Feb-27 01:23 UTC. Time now 2015-Mar-07 04:31 UTC.
Position N 30°59' E 122°32'.
Warning: this ship's position is 8 days out of date.

Length 120 m; draft 6.1 m.

Type: Cargo ship. MMSI: 356613000.

Date/timePositionNaut miles runAvg speedWind from/ knotsBaromVisibWave heightAir tempDewpointWater temp
2015-Feb-27 01:23N 30°59' E 122°32'1112.7
2015-Feb-27 00:33N 31°02' E 122°20'1212.1
2015-Feb-26 23:33N 31°04' E 122°06'1212.1
2015-Feb-26 22:33N 31°09' E 121°53'1111.5
2015-Feb-26 21:33N 31°17' E 121°44'4 3.6
2015-Feb-26 20:31N 31°19' E 121°41'0 0.0
2015-Feb-26 19:31N 31°19' E 121°41'0 0.0
2015-Feb-26 18:28N 31°19' E 121°41'0 0.0
2015-Feb-26 17:31N 31°19' E 121°41'0 0.0
2015-Feb-26 16:31N 31°19' E 121°41'0 0.0
2015-Feb-26 15:31N 31°19' E 121°41'0 0.0
2015-Feb-26 14:31N 31°19' E 121°41'0 0.0
2015-Feb-26 13:31N 31°19' E 121°41'0 0.0
2015-Feb-26 12:31N 31°19' E 121°41'0 0.0
2015-Feb-26 11:31N 31°19' E 121°41'0 0.0
2015-Feb-26 10:31N 31°19' E 121°41'2 2.3
2015-Feb-26 09:33N 31°18' E 121°43'1313.4
2015-Feb-26 08:33N 31°09' E 121°54'1312.7
2015-Feb-26 07:33N 31°04' E 122°07'1211.6
2015-Feb-26 06:33N 31°02' E 122°21'9 8.7
2015-Feb-26 05:32N 31°00' E 122°31'40811.2
2015-Feb-24 17:18N 37°47' E 122°39'21913.9
2015-Feb-24 01:31N 38°51' E 118°13'1212.8
2015-Feb-24 00:33N 38°57' E 117°58'1111.3
2015-Feb-23 23:33N 38°59' E 117°44'0 0.4
2015-Feb-23 22:30N 38°59' E 117°44'0 0.0
2015-Feb-23 21:30N 38°59' E 117°44'0 0.0
2015-Feb-23 20:24N 38°59' E 117°44'0 0.0
2015-Feb-23 19:30N 38°59' E 117°44'0 0.0
2015-Feb-23 18:30N 38°59' E 117°44'0 0.0
2015-Feb-23 17:30N 38°59' E 117°44'0 0.0
2015-Feb-23 16:30N 38°59' E 117°44'0 0.0
2015-Feb-23 15:34N 38°59' E 117°44'9 8.5
2015-Feb-23 14:33N 38°57' E 117°54'1110.6
2015-Feb-23 13:33N 38°56' E 118°08'7 7.2
2015-Feb-23 12:33N 38°52' E 118°16'15612.0
2015-Feb-22 23:29N 38°20' E 121°31'  
Track history (hours):
 
Tides and Currents Weather Stations Pressure Air Temp Water Temp Dewpoint Dewpoint Depression Visibility Wind Speed Wind Dir Waves Ship Positions

Pulau Tioman

Last reported at 2015-Feb-27 01:23 UTC. Time now 2015-Mar-07 04:31 UTC.
Position N 30°59' E 122°32'.
Warning: this ship's position is 8 days out of date.

Length 120 m; draft 6.1 m.

Type: Cargo ship. MMSI: 356613000.

Date/timePositionNaut miles runAvg speedWind from/ knotsBaromVisibWave heightAir tempDewpointWater temp
2015-Feb-27 01:23N 30°59' E 122°32'1112.7
2015-Feb-27 00:33N 31°02' E 122°20'1212.1
2015-Feb-26 23:33N 31°04' E 122°06'1212.1
2015-Feb-26 22:33N 31°09' E 121°53'1111.5
2015-Feb-26 21:33N 31°17' E 121°44'4 3.6
2015-Feb-26 20:31N 31°19' E 121°41'0 0.0
2015-Feb-26 19:31N 31°19' E 121°41'0 0.0
2015-Feb-26 18:28N 31°19' E 121°41'0 0.0
2015-Feb-26 17:31N 31°19' E 121°41'0 0.0
2015-Feb-26 16:31N 31°19' E 121°41'0 0.0
2015-Feb-26 15:31N 31°19' E 121°41'0 0.0
2015-Feb-26 14:31N 31°19' E 121°41'0 0.0
2015-Feb-26 13:31N 31°19' E 121°41'0 0.0
2015-Feb-26 12:31N 31°19' E 121°41'0 0.0
2015-Feb-26 11:31N 31°19' E 121°41'0 0.0
2015-Feb-26 10:31N 31°19' E 121°41'2 2.3
2015-Feb-26 09:33N 31°18' E 121°43'1313.4
2015-Feb-26 08:33N 31°09' E 121°54'1312.7
2015-Feb-26 07:33N 31°04' E 122°07'1211.6
2015-Feb-26 06:33N 31°02' E 122°21'9 8.7
2015-Feb-26 05:32N 31°00' E 122°31'40811.2
2015-Feb-24 17:18N 37°47' E 122°39'21913.9
2015-Feb-24 01:31N 38°51' E 118°13'1212.8
2015-Feb-24 00:33N 38°57' E 117°58'1111.3
2015-Feb-23 23:33N 38°59' E 117°44'0 0.4
2015-Feb-23 22:30N 38°59' E 117°44'0 0.0
2015-Feb-23 21:30N 38°59' E 117°44'0 0.0
2015-Feb-23 20:24N 38°59' E 117°44'0 0.0
2015-Feb-23 19:30N 38°59' E 117°44'0 0.0
2015-Feb-23 18:30N 38°59' E 117°44'0 0.0
2015-Feb-23 17:30N 38°59' E 117°44'0 0.0
2015-Feb-23 16:30N 38°59' E 117°44'0 0.0
2015-Feb-23 15:34N 38°59' E 117°44'9 8.5
2015-Feb-23 14:33N 38°57' E 117°54'1110.6
2015-Feb-23 13:33N 38°56' E 118°08'7 7.2
2015-Feb-23 12:33N 38°52' E 118°16'15612.0
2015-Feb-22 23:29N 38°20' E 121°31'  

Dump ship's entire track history